createdAt,value
2018-12-12T00:00:27.158Z,14.73
2018-12-12T00:02:54.639Z,15.50
2018-12-12T00:05:22.103Z,17.30
2018-12-12T00:07:49.543Z,18.40
2018-12-12T00:10:19.307Z,21.00
2018-12-12T00:12:48.181Z,21.00
2018-12-12T00:15:17.255Z,24.20
2018-12-12T00:17:44.724Z,25.47
2018-12-12T00:20:12.164Z,30.20
2018-12-12T00:22:39.699Z,31.33
2018-12-12T00:25:07.115Z,34.77
2018-12-12T00:27:34.562Z,36.33
2018-12-12T00:30:02.106Z,38.53
2018-12-12T00:32:29.555Z,38.83
2018-12-12T00:34:57.001Z,43.00
2018-12-12T00:37:24.475Z,45.07
2018-12-12T00:39:51.935Z,47.23
2018-12-12T00:42:19.412Z,49.70
2018-12-12T00:44:46.936Z,51.10
2018-12-12T00:47:14.639Z,50.97
2018-12-12T00:49:42.170Z,53.37
2018-12-12T00:52:09.618Z,54.53
2018-12-12T00:54:37.303Z,56.30
2018-12-12T00:57:04.758Z,58.50
2018-12-12T00:59:32.310Z,59.37
2018-12-12T01:01:59.755Z,61.67
2018-12-12T01:04:27.327Z,66.67
2018-12-12T01:06:54.775Z,71.97
2018-12-12T01:09:22.227Z,72.07
2018-12-12T01:11:55.235Z,72.13
2018-12-12T01:14:22.698Z,74.90
2018-12-12T01:16:50.151Z,75.90
2018-12-12T01:19:17.651Z,81.90
2018-12-12T01:21:45.155Z,77.50
2018-12-12T01:24:12.604Z,83.90
2018-12-12T01:26:40.076Z,82.73
2018-12-12T01:29:07.535Z,86.77
2018-12-12T01:31:34.995Z,88.30
2018-12-12T01:34:02.546Z,92.10
2018-12-12T01:36:30.010Z,92.67
2018-12-12T01:38:57.459Z,94.60
2018-12-12T01:41:25.088Z,96.33
2018-12-12T01:43:52.584Z,95.27
2018-12-12T01:46:20.039Z,96.70
2018-12-12T01:48:47.599Z,100.03
2018-12-12T01:51:15.062Z,101.97
2018-12-12T01:53:44.456Z,104.90
2018-12-12T01:56:11.914Z,100.70
2018-12-12T01:58:39.366Z,101.80
2018-12-12T02:01:07.253Z,102.30
2018-12-12T02:03:34.703Z,101.90
2018-12-12T02:06:02.155Z,106.60
2018-12-12T02:08:29.595Z,105.20
2018-12-12T02:10:57.344Z,106.77
2018-12-12T02:13:34.366Z,104.40
2018-12-12T02:16:03.054Z,102.77
2018-12-12T02:18:31.806Z,103.30
2018-12-12T02:20:59.595Z,108.97
2018-12-12T02:23:27.126Z,107.60
2018-12-12T02:25:54.619Z,110.20
2018-12-12T02:28:22.067Z,109.73
2018-12-12T02:30:49.514Z,108.33
2018-12-12T02:33:16.955Z,110.30
2018-12-12T02:35:44.403Z,111.70
2018-12-12T02:38:11.897Z,112.53
2018-12-12T02:40:39.344Z,112.43
2018-12-12T02:43:06.810Z,115.33
2018-12-12T02:45:34.274Z,118.50
2018-12-12T02:48:01.836Z,113.80
2018-12-12T02:50:29.392Z,114.53
2018-12-12T02:52:56.872Z,114.90
2018-12-12T02:55:24.310Z,115.93
2018-12-12T02:57:51.885Z,115.70
2018-12-12T03:00:19.358Z,114.63
2018-12-12T03:02:46.803Z,113.13
2018-12-12T03:05:14.364Z,113.50
2018-12-12T03:07:41.820Z,112.23
2018-12-12T03:10:09.304Z,113.63
2018-12-12T03:12:36.815Z,109.43
2018-12-12T03:15:04.896Z,111.20
2018-12-12T03:17:32.442Z,110.30
2018-12-12T03:19:59.914Z,108.10
2018-12-12T03:22:27.483Z,110.20
2018-12-12T03:24:54.944Z,106.40
2018-12-12T03:27:22.483Z,105.10
2018-12-12T03:29:49.953Z,104.67
2018-12-12T03:32:17.569Z,100.30
2018-12-12T03:34:45.056Z,97.83
2018-12-12T03:37:12.620Z,100.07
2018-12-12T03:39:40.078Z,98.67
2018-12-12T03:42:07.535Z,98.37
2018-12-12T03:44:34.980Z,95.50
2018-12-12T03:47:02.423Z,92.70
2018-12-12T03:49:29.886Z,91.53
2018-12-12T03:51:57.358Z,90.87
2018-12-12T03:54:24.813Z,90.90
2018-12-12T03:56:52.384Z,85.57
2018-12-12T03:59:19.923Z,86.23
2018-12-12T04:01:47.372Z,87.17
2018-12-12T04:04:14.811Z,83.07
2018-12-12T04:06:42.290Z,80.63
2018-12-12T04:09:09.730Z,80.33
2018-12-12T04:11:37.183Z,79.43
2018-12-12T04:14:04.635Z,77.33
2018-12-12T04:16:32.162Z,76.80
2018-12-12T04:18:59.923Z,74.73
2018-12-12T04:21:27.474Z,71.53
2018-12-12T04:23:55.332Z,70.30
2018-12-12T04:26:22.770Z,67.17
2018-12-12T04:28:50.231Z,68.33
2018-12-12T04:31:17.707Z,67.03
2018-12-12T04:33:45.159Z,65.30
2018-12-12T04:36:12.608Z,59.40
2018-12-12T04:38:40.072Z,62.50
2018-12-12T04:41:07.531Z,61.03
2018-12-12T04:43:34.983Z,58.03
2018-12-12T04:46:02.443Z,57.17
2018-12-12T04:48:30.014Z,57.07
2018-12-12T04:50:57.572Z,54.90
2018-12-12T04:53:25.028Z,55.67
2018-12-12T04:55:52.500Z,52.67
2018-12-12T04:58:19.946Z,52.33
2018-12-12T05:00:47.499Z,50.87
2018-12-12T05:03:14.952Z,49.33
2018-12-12T05:05:42.523Z,48.57
2018-12-12T05:08:09.968Z,47.33
2018-12-12T05:10:37.415Z,43.83
2018-12-12T05:13:04.878Z,43.87
2018-12-12T05:15:32.319Z,44.93
2018-12-12T05:17:59.763Z,42.07
2018-12-12T05:20:27.294Z,40.70
2018-12-12T05:22:54.835Z,40.20
2018-12-12T05:25:22.271Z,38.20
2018-12-12T05:27:49.739Z,37.13
2018-12-12T05:30:17.187Z,37.47
2018-12-12T05:32:44.646Z,35.53
2018-12-12T05:35:12.098Z,35.83
2018-12-12T05:37:40.628Z,33.30
2018-12-12T05:40:08.796Z,33.67
2018-12-12T05:42:36.696Z,32.70
2018-12-12T05:45:05.211Z,31.50
2018-12-12T05:47:32.663Z,29.67
2018-12-12T05:50:00.127Z,28.53
2018-12-12T05:52:27.696Z,29.20
2018-12-12T05:54:55.157Z,28.07
2018-12-12T05:57:22.718Z,27.07
2018-12-12T05:59:50.275Z,26.40
2018-12-12T06:02:17.818Z,26.70
2018-12-12T06:04:45.275Z,24.73
2018-12-12T06:07:12.739Z,24.50
2018-12-12T06:09:40.199Z,23.53
2018-12-12T06:12:07.795Z,23.20
2018-12-12T06:14:35.260Z,23.23
2018-12-12T06:17:03.134Z,22.03
2018-12-12T06:19:30.582Z,21.70
2018-12-12T06:21:58.047Z,20.60
2018-12-12T06:24:25.503Z,20.60
2018-12-12T06:26:52.952Z,20.00
2018-12-12T06:29:20.467Z,19.00
2018-12-12T06:31:47.957Z,18.37
2018-12-12T06:34:15.431Z,17.10
2018-12-12T06:36:42.951Z,17.23
2018-12-12T06:39:10.503Z,16.77
2018-12-12T06:41:37.967Z,15.97
2018-12-12T06:44:05.547Z,16.03
2018-12-12T06:46:33.076Z,15.90
2018-12-12T06:49:00.552Z,14.97
2018-12-12T06:51:28.104Z,14.70
2018-12-12T06:53:55.547Z,14.20
2018-12-12T06:56:23.013Z,13.47
2018-12-12T06:58:50.456Z,13.27
2018-12-12T07:01:17.907Z,13.00
2018-12-12T07:03:45.407Z,12.33
2018-12-12T07:06:12.890Z,12.13
2018-12-12T07:08:40.335Z,11.83
2018-12-12T07:11:07.859Z,11.07
2018-12-12T07:13:35.825Z,11.17
2018-12-12T07:16:03.605Z,10.80
2018-12-12T07:18:31.056Z,10.37
2018-12-12T07:20:58.606Z,10.10
2018-12-12T07:23:26.371Z,9.60
2018-12-12T07:25:53.844Z,9.53
2018-12-12T07:28:21.263Z,8.90
2018-12-12T07:30:48.846Z,8.87
2018-12-12T07:33:16.416Z,8.50
2018-12-12T07:35:43.881Z,8.80
2018-12-12T07:38:11.419Z,8.07
2018-12-12T07:40:38.889Z,7.50
2018-12-12T07:43:06.334Z,7.37
2018-12-12T07:45:33.828Z,7.43
2018-12-12T07:48:01.672Z,7.03
2018-12-12T07:50:29.422Z,6.97
2018-12-12T07:52:56.957Z,6.97
2018-12-12T07:55:24.410Z,6.40
2018-12-12T07:57:51.855Z,6.30
2018-12-12T08:00:19.339Z,6.73
2018-12-12T08:02:46.811Z,6.40
2018-12-12T08:05:14.272Z,6.10
2018-12-12T08:07:41.707Z,5.40
2018-12-12T08:10:09.264Z,5.40
2018-12-12T08:12:36.751Z,5.27
2018-12-12T08:15:04.403Z,5.40
2018-12-12T08:17:31.846Z,4.97
2018-12-12T08:19:59.296Z,5.10
2018-12-12T08:22:26.727Z,4.87
2018-12-12T08:24:54.378Z,4.50
2018-12-12T08:27:21.912Z,4.43
2018-12-12T08:29:49.359Z,4.60
2018-12-12T08:32:16.818Z,4.27
2018-12-12T08:34:44.371Z,4.10
2018-12-12T08:37:11.835Z,4.20
2018-12-12T08:39:39.291Z,4.07
2018-12-12T08:42:06.733Z,4.20
2018-12-12T08:44:34.178Z,4.20
2018-12-12T08:47:01.864Z,4.20
2018-12-12T08:49:29.309Z,3.80
2018-12-12T08:51:56.781Z,3.70
2018-12-12T08:54:24.249Z,3.77
2018-12-12T08:56:52.840Z,3.80
2018-12-12T08:59:20.285Z,3.77
2018-12-12T09:01:47.739Z,3.47
2018-12-12T09:04:15.259Z,3.90
2018-12-12T09:06:42.799Z,3.50
2018-12-12T09:09:10.315Z,3.70
2018-12-12T09:11:37.752Z,3.40
2018-12-12T09:14:05.229Z,3.40
2018-12-12T09:16:32.786Z,3.50
2018-12-12T09:19:00.364Z,3.50
2018-12-12T09:21:27.800Z,3.30
2018-12-12T09:23:55.648Z,3.40
2018-12-12T09:26:23.057Z,3.30
2018-12-12T09:28:50.592Z,3.03
2018-12-12T09:31:18.035Z,3.27
2018-12-12T09:33:45.479Z,3.30
2018-12-12T09:36:12.952Z,3.27
2018-12-12T09:38:40.418Z,3.10
2018-12-12T09:41:07.975Z,3.20
2018-12-12T09:43:35.432Z,3.10
2018-12-12T09:46:02.893Z,3.13
2018-12-12T09:48:30.350Z,3.00
2018-12-12T09:50:57.807Z,3.07
2018-12-12T09:53:25.267Z,3.23
2018-12-12T09:55:52.719Z,3.10
2018-12-12T09:58:20.152Z,3.10
2018-12-12T10:00:47.594Z,3.10
2018-12-12T10:03:15.027Z,2.90
2018-12-12T10:05:42.475Z,2.90
2018-12-12T10:08:09.910Z,2.93
2018-12-12T10:10:37.357Z,3.20
2018-12-12T10:13:04.796Z,2.97
2018-12-12T10:15:32.252Z,3.07
2018-12-12T10:17:59.699Z,2.83
2018-12-12T10:20:27.141Z,3.00
2018-12-12T10:22:54.586Z,3.00
2018-12-12T10:25:22.015Z,3.13
2018-12-12T10:27:49.460Z,3.10
2018-12-12T10:30:17.028Z,2.80
2018-12-12T10:32:44.465Z,2.80
2018-12-12T10:35:12.112Z,2.80
2018-12-12T10:37:39.537Z,2.80
2018-12-12T10:40:07.003Z,2.57
2018-12-12T10:42:34.507Z,2.67
2018-12-12T10:45:01.980Z,2.87
2018-12-12T10:47:29.531Z,2.80
2018-12-12T10:49:56.991Z,2.70
2018-12-12T10:52:24.547Z,2.70
2018-12-12T10:54:51.987Z,2.70
2018-12-12T10:57:19.534Z,2.80
2018-12-12T10:59:47.023Z,2.70
2018-12-12T11:02:20.331Z,2.50
2018-12-12T11:04:47.900Z,2.83
2018-12-12T11:07:15.443Z,2.70
2018-12-12T11:09:42.912Z,2.53
2018-12-12T11:12:10.354Z,2.80
2018-12-12T11:14:38.217Z,2.57
2018-12-12T11:17:05.671Z,2.60
2018-12-12T11:19:33.118Z,2.47
2018-12-12T11:22:00.594Z,2.80
2018-12-12T11:24:28.051Z,2.40
2018-12-12T11:26:55.487Z,2.53
2018-12-12T11:29:22.966Z,2.40
2018-12-12T11:31:50.411Z,2.50
2018-12-12T11:34:17.934Z,2.60
2018-12-12T11:36:45.475Z,2.90
2018-12-12T11:39:12.931Z,2.40
2018-12-12T11:41:40.375Z,2.60
2018-12-12T11:44:07.913Z,2.80
2018-12-12T11:46:35.394Z,2.60
2018-12-12T11:49:02.943Z,2.73
2018-12-12T11:51:30.388Z,2.60
2018-12-12T11:53:57.855Z,2.80
2018-12-12T11:56:25.402Z,2.47
2018-12-12T11:58:52.966Z,2.70
2018-12-12T12:01:20.414Z,2.57
2018-12-12T12:03:47.951Z,2.30
2018-12-12T12:06:15.513Z,2.33
2018-12-12T12:08:42.994Z,2.70
2018-12-12T12:11:10.458Z,2.47
2018-12-12T12:13:38.005Z,2.20
2018-12-12T12:16:05.434Z,2.50
2018-12-12T12:18:32.930Z,4.50
2018-12-12T12:21:00.486Z,6.57
2018-12-12T12:23:28.032Z,3.87
2018-12-12T12:25:55.465Z,2.20
2018-12-12T12:28:22.907Z,3.03
2018-12-12T12:30:50.400Z,2.80
2018-12-12T12:33:19.370Z,3.13
2018-12-12T12:35:46.869Z,5.07
2018-12-12T12:38:14.334Z,3.63
2018-12-12T12:40:41.775Z,7.07
2018-12-12T12:43:09.243Z,7.13
2018-12-12T12:45:36.681Z,4.87
2018-12-12T12:48:04.115Z,4.20
2018-12-12T12:50:31.631Z,4.97
2018-12-12T12:52:59.122Z,4.27
2018-12-12T12:55:26.650Z,2.67
2018-12-12T12:57:54.110Z,2.93
2018-12-12T13:00:21.583Z,7.87
2018-12-12T13:02:49.023Z,7.07
2018-12-12T13:05:16.481Z,9.43
2018-12-12T13:07:43.993Z,4.63
2018-12-12T13:10:11.857Z,7.33
2018-12-12T13:12:39.523Z,5.90
2018-12-12T13:15:07.383Z,5.13
2018-12-12T13:17:35.056Z,4.17
2018-12-12T13:20:02.539Z,5.23
2018-12-12T13:22:30.279Z,3.47
2018-12-12T13:24:57.777Z,4.20
2018-12-12T13:27:25.262Z,5.40
2018-12-12T13:29:52.821Z,6.67
2018-12-12T13:32:20.929Z,8.80
2018-12-12T13:34:48.560Z,3.90
2018-12-12T13:37:16.176Z,8.33
2018-12-12T13:39:43.631Z,11.00
2018-12-12T13:42:11.175Z,7.53
2018-12-12T13:44:38.662Z,8.03
2018-12-12T13:47:06.143Z,9.50
2018-12-12T13:49:33.771Z,11.60
2018-12-12T13:52:01.223Z,11.47
2018-12-12T13:54:28.712Z,8.63
2018-12-12T13:56:56.167Z,8.90
2018-12-12T13:59:23.846Z,11.67
2018-12-12T14:01:51.294Z,9.23
2018-12-12T14:04:22.716Z,7.23
2018-12-12T14:06:48.262Z,7.93
2018-12-12T14:09:15.803Z,9.93
2018-12-12T14:11:43.274Z,9.93
2018-12-12T14:14:10.754Z,9.63
2018-12-12T14:16:38.308Z,12.30
2018-12-12T14:19:05.804Z,18.73
2018-12-12T14:21:33.268Z,15.67
2018-12-12T14:24:00.736Z,15.10
2018-12-12T14:26:28.184Z,9.77
2018-12-12T14:28:55.645Z,7.53
2018-12-12T14:31:23.788Z,14.37
2018-12-12T14:33:51.528Z,10.77
2018-12-12T14:36:19.056Z,11.27
2018-12-12T14:38:46.630Z,9.57
2018-12-12T14:41:14.068Z,11.63
2018-12-12T14:43:41.526Z,21.37
2018-12-12T14:46:09.088Z,13.67
2018-12-12T14:48:36.531Z,8.00
2018-12-12T14:51:04.000Z,15.63
2018-12-12T14:53:31.460Z,31.47
2018-12-12T14:55:58.917Z,14.67
2018-12-12T14:58:26.467Z,19.87
2018-12-12T15:00:53.922Z,17.53
2018-12-12T15:03:21.453Z,24.90
2018-12-12T15:05:49.002Z,19.57
2018-12-12T15:08:16.512Z,21.53
2018-12-12T15:10:44.158Z,22.37
2018-12-12T15:13:11.626Z,15.47
2018-12-12T15:15:39.101Z,23.20
2018-12-12T15:18:06.579Z,22.63
2018-12-12T15:20:34.108Z,55.00
2018-12-12T15:23:01.729Z,26.57
2018-12-12T15:25:29.333Z,37.03
2018-12-12T15:27:56.879Z,21.87
2018-12-12T15:30:24.465Z,19.93
2018-12-12T15:32:52.021Z,18.27
2018-12-12T15:35:19.587Z,19.40
2018-12-12T15:37:47.119Z,30.87
2018-12-12T15:40:14.715Z,19.43
2018-12-12T15:42:42.155Z,18.73
2018-12-12T15:45:09.863Z,24.00
2018-12-12T15:47:37.307Z,21.80
2018-12-12T15:50:04.759Z,16.40
2018-12-12T15:52:32.238Z,20.33
2018-12-12T15:54:59.676Z,16.50
2018-12-12T15:57:27.136Z,14.57
2018-12-12T15:59:54.667Z,16.13
2018-12-12T16:02:22.135Z,16.23
2018-12-12T16:04:49.618Z,14.77
2018-12-12T16:07:17.068Z,13.00
2018-12-12T16:09:44.602Z,27.27
2018-12-12T16:12:12.140Z,23.37
2018-12-12T16:14:39.587Z,26.53
2018-12-12T16:17:07.079Z,20.97
2018-12-12T16:19:34.543Z,16.10
2018-12-12T16:22:02.178Z,23.33
2018-12-12T16:24:29.751Z,23.20
2018-12-12T16:26:57.315Z,20.27
2018-12-12T16:29:24.764Z,16.97
2018-12-12T16:31:52.216Z,26.77
2018-12-12T16:34:19.675Z,21.80
2018-12-12T16:36:47.203Z,24.50
2018-12-12T16:39:14.658Z,15.00
2018-12-12T16:41:42.235Z,14.90
2018-12-12T16:44:09.775Z,15.27
2018-12-12T16:46:37.219Z,14.80
2018-12-12T16:49:04.683Z,19.47
2018-12-12T16:51:32.124Z,31.43
2018-12-12T16:53:59.627Z,14.37
2018-12-12T16:56:27.085Z,11.40
2018-12-12T16:58:54.531Z,12.53
2018-12-12T17:01:21.984Z,14.43
2018-12-12T17:03:49.469Z,12.83
2018-12-12T17:06:17.000Z,13.13
2018-12-12T17:08:44.436Z,12.50
2018-12-12T17:11:11.893Z,9.10
2018-12-12T17:13:40.128Z,12.83
2018-12-12T17:16:07.813Z,13.43
2018-12-12T17:18:35.291Z,8.00
2018-12-12T17:21:02.894Z,12.07
2018-12-12T17:23:30.522Z,11.90
2018-12-12T17:25:58.060Z,8.60
2018-12-12T17:28:25.521Z,12.50
2018-12-12T17:30:52.999Z,19.37
2018-12-12T17:33:20.436Z,18.70
2018-12-12T17:35:47.898Z,13.87
2018-12-12T17:38:15.416Z,12.10
2018-12-12T17:40:42.975Z,10.47
2018-12-12T17:43:10.567Z,11.23
2018-12-12T17:45:38.118Z,12.57
2018-12-12T17:48:05.680Z,14.73
2018-12-12T17:50:33.196Z,35.50
2018-12-12T17:53:00.706Z,13.43
2018-12-12T17:55:28.247Z,17.10
2018-12-12T17:57:55.808Z,10.27
2018-12-12T18:00:23.382Z,12.60
2018-12-12T18:02:50.847Z,10.77
2018-12-12T18:05:18.447Z,15.77
2018-12-12T18:07:46.009Z,15.50
2018-12-12T18:10:13.483Z,11.67
2018-12-12T18:12:40.974Z,16.43
2018-12-12T18:15:08.471Z,16.43
2018-12-12T18:17:35.952Z,14.37
2018-12-12T18:20:04.059Z,17.30
2018-12-12T18:22:31.746Z,14.30
2018-12-12T18:24:59.262Z,12.70
2018-12-12T18:27:26.738Z,9.60
2018-12-12T18:29:54.351Z,13.93
2018-12-12T18:32:21.827Z,12.97
2018-12-12T18:34:49.378Z,17.87
2018-12-12T18:37:16.820Z,13.40
2018-12-12T18:39:44.331Z,13.03
2018-12-12T18:42:11.870Z,15.77
2018-12-12T18:44:39.335Z,15.27
2018-12-12T18:47:06.908Z,9.50
2018-12-12T18:49:34.351Z,9.73
2018-12-12T18:52:01.823Z,13.40
2018-12-12T18:54:29.395Z,15.07
2018-12-12T18:56:56.857Z,6.90
2018-12-12T18:59:27.091Z,10.87
2018-12-12T19:01:55.900Z,15.40
2018-12-12T19:04:23.492Z,11.63
2018-12-12T19:06:50.950Z,11.73
2018-12-12T19:09:18.403Z,10.73
2018-12-12T19:11:45.937Z,7.17
2018-12-12T19:14:13.391Z,9.30
2018-12-12T19:16:40.951Z,7.57
2018-12-12T19:19:08.437Z,5.27
2018-12-12T19:21:35.884Z,8.40
2018-12-12T19:24:03.367Z,8.00
2018-12-12T19:26:30.901Z,10.50
2018-12-12T19:28:58.439Z,10.00
2018-12-12T19:31:25.954Z,9.23
2018-12-12T19:33:53.411Z,6.90
2018-12-12T19:36:20.854Z,9.00
2018-12-12T19:38:48.313Z,6.77
2018-12-12T19:41:15.795Z,9.33
2018-12-12T19:43:43.302Z,7.23
2018-12-12T19:46:10.769Z,6.10
2018-12-12T19:48:38.244Z,7.97
2018-12-12T19:51:05.763Z,8.13
2018-12-12T19:53:33.375Z,6.57
2018-12-12T19:56:00.796Z,7.47
2018-12-12T19:58:28.366Z,6.23
2018-12-12T20:00:55.833Z,5.00
2018-12-12T20:03:23.337Z,4.17
2018-12-12T20:05:50.819Z,5.60
2018-12-12T20:08:18.269Z,5.77
2018-12-12T20:10:45.731Z,6.07
2018-12-12T20:13:13.208Z,5.03
2018-12-12T20:15:44.579Z,4.73
2018-12-12T20:18:12.477Z,7.00
2018-12-12T20:20:39.975Z,5.03
2018-12-12T20:23:07.418Z,4.03
2018-12-12T20:25:34.880Z,5.93
2018-12-12T20:28:02.311Z,4.60
2018-12-12T20:30:35.336Z,6.47
2018-12-12T20:32:59.196Z,5.00
2018-12-12T20:35:26.659Z,4.77
2018-12-12T20:37:54.215Z,5.57
2018-12-12T20:40:21.670Z,6.47
2018-12-12T20:42:49.163Z,3.97
2018-12-12T20:45:16.701Z,5.43
2018-12-12T20:47:44.171Z,5.80
2018-12-12T20:50:11.695Z,3.57
2018-12-12T20:52:39.195Z,6.07
2018-12-12T20:55:06.731Z,5.03
2018-12-12T20:57:34.291Z,4.07
2018-12-12T21:00:01.761Z,3.63
2018-12-12T21:02:29.199Z,3.80
2018-12-12T21:04:56.655Z,5.07
2018-12-12T21:07:24.909Z,3.90
2018-12-12T21:09:52.370Z,4.07
2018-12-12T21:12:19.845Z,3.43
2018-12-12T21:14:47.321Z,5.07
2018-12-12T21:17:15.783Z,2.57
2018-12-12T21:19:43.247Z,4.07
2018-12-12T21:22:10.802Z,4.03
2018-12-12T21:24:38.252Z,4.50
2018-12-12T21:27:05.694Z,3.67
2018-12-12T21:29:33.171Z,4.47
2018-12-12T21:32:00.757Z,3.70
2018-12-12T21:34:28.294Z,3.07
2018-12-12T21:36:55.756Z,2.77
2018-12-12T21:39:23.320Z,4.37
2018-12-12T21:41:50.781Z,6.70
2018-12-12T21:44:18.241Z,2.90
2018-12-12T21:46:45.798Z,4.00
2018-12-12T21:49:13.230Z,3.87
2018-12-12T21:51:40.739Z,3.17
2018-12-12T21:54:08.176Z,4.77
2018-12-12T21:56:35.610Z,3.57
2018-12-12T21:59:03.061Z,3.17
2018-12-12T22:01:30.552Z,2.43
2018-12-12T22:03:57.996Z,3.47
2018-12-12T22:06:25.454Z,3.50
2018-12-12T22:08:52.927Z,2.73
2018-12-12T22:11:20.386Z,3.10
2018-12-12T22:13:47.829Z,4.43
2018-12-12T22:16:15.394Z,5.33
2018-12-12T22:18:42.831Z,3.83
2018-12-12T22:21:10.310Z,3.23
2018-12-12T22:23:37.875Z,3.17
2018-12-12T22:26:05.311Z,2.97
2018-12-12T22:28:32.885Z,2.90
2018-12-12T22:31:00.423Z,4.00
2018-12-12T22:33:27.967Z,3.13
2018-12-12T22:35:55.473Z,2.60
2018-12-12T22:38:22.938Z,3.40
2018-12-12T22:40:50.373Z,3.10
2018-12-12T22:43:17.875Z,3.33
2018-12-12T22:45:45.490Z,1.90
2018-12-12T22:48:12.943Z,2.80
2018-12-12T22:50:40.612Z,2.97
2018-12-12T22:53:08.064Z,2.13
2018-12-12T22:55:35.614Z,2.50
2018-12-12T22:58:03.098Z,2.97
2018-12-12T23:00:34.698Z,2.90
2018-12-12T23:03:02.238Z,3.00
2018-12-12T23:05:29.698Z,2.23
2018-12-12T23:07:57.198Z,1.80
2018-12-12T23:10:24.655Z,3.97
2018-12-12T23:12:52.146Z,2.40
2018-12-12T23:15:19.799Z,2.20
2018-12-12T23:17:47.255Z,2.63
2018-12-12T23:20:14.791Z,2.70
2018-12-12T23:22:42.240Z,2.10
2018-12-12T23:25:09.713Z,2.20
2018-12-12T23:27:37.178Z,2.30
2018-12-12T23:30:06.338Z,3.10
2018-12-12T23:32:33.784Z,1.97
2018-12-12T23:35:01.248Z,1.70
2018-12-12T23:37:28.763Z,2.33
2018-12-12T23:39:56.215Z,1.33
2018-12-12T23:42:23.774Z,2.47
2018-12-12T23:44:51.336Z,1.67
2018-12-12T23:47:18.875Z,1.83
2018-12-12T23:49:46.408Z,2.27
2018-12-12T23:52:13.871Z,1.70
2018-12-12T23:54:41.321Z,1.60
2018-12-12T23:57:08.839Z,2.57
2018-12-12T23:59:36.479Z,1.97
